createdAt,value
2022-09-20T00:01:56.016Z,1.85
2022-09-20T00:04:26.096Z,2.47
2022-09-20T00:06:53.853Z,2.17
2022-09-20T00:09:24.249Z,2.40
2022-09-20T00:11:53.937Z,2.85
2022-09-20T00:14:21.548Z,2.03
2022-09-20T00:16:51.762Z,2.47
2022-09-20T00:19:22.116Z,2.40
2022-09-20T00:21:49.966Z,2.30
2022-09-20T00:24:17.523Z,2.60
2022-09-20T00:26:44.666Z,2.50
2022-09-20T00:29:12.851Z,2.28
2022-09-20T00:31:42.913Z,2.70
2022-09-20T00:34:29.637Z,2.78
2022-09-20T00:36:58.589Z,2.75
2022-09-20T00:39:28.036Z,2.40
2022-09-20T00:41:56.185Z,2.58
2022-09-20T00:44:50.253Z,2.53
2022-09-20T00:47:34.225Z,2.75
2022-09-20T00:50:41.197Z,2.88
2022-09-20T00:53:34.138Z,4.78
2022-09-20T00:56:10.669Z,4.05
2022-09-20T00:58:44.568Z,3.70
2022-09-20T01:01:14.212Z,3.25
2022-09-20T01:03:43.107Z,4.07
2022-09-20T01:06:13.952Z,3.53
2022-09-20T01:08:44.999Z,4.70
2022-09-20T01:11:12.699Z,4.00
2022-09-20T01:13:42.778Z,4.65
2022-09-20T01:16:11.169Z,4.63
2022-09-20T01:18:39.429Z,4.43
2022-09-20T01:21:07.513Z,4.40
2022-09-20T01:24:20.004Z,6.07
2022-09-20T01:27:34.592Z,5.75
2022-09-20T01:30:09.526Z,5.00
2022-09-20T01:32:44.726Z,4.85
2022-09-20T01:35:12.733Z,4.10
2022-09-20T01:38:07.991Z,4.97
2022-09-20T01:41:01.282Z,4.13
2022-09-20T01:43:37.362Z,3.63
2022-09-20T01:46:31.347Z,3.80
2022-09-20T01:49:15.266Z,3.70
2022-09-20T01:52:16.054Z,3.20
2022-09-20T01:55:35.527Z,3.30
2022-09-20T01:58:39.566Z,3.28
2022-09-20T02:01:12.689Z,3.40
2022-09-20T02:04:02.802Z,3.28
2022-09-20T02:06:32.900Z,3.42
2022-09-20T02:09:14.446Z,3.42
2022-09-20T02:11:44.322Z,3.58
2022-09-20T02:14:35.379Z,3.47
2022-09-20T02:17:18.340Z,3.55
2022-09-20T02:20:15.779Z,3.88
2022-09-20T02:22:48.736Z,3.90
2022-09-20T02:25:23.589Z,4.13
2022-09-20T02:28:12.365Z,4.70
2022-09-20T02:31:24.260Z,5.25
2022-09-20T02:34:28.390Z,4.25
2022-09-20T02:37:10.635Z,4.00
2022-09-20T02:39:54.336Z,3.97
2022-09-20T02:42:48.946Z,4.65
2022-09-20T02:45:28.725Z,3.90
2022-09-20T02:48:04.267Z,4.45
2022-09-20T02:53:51.197Z,4.35
2022-09-20T02:56:41.890Z,4.18
2022-09-20T02:59:43.877Z,3.60
2022-09-20T03:02:28.377Z,4.60
2022-09-20T03:05:36.790Z,5.00
2022-09-20T03:08:16.083Z,5.00
2022-09-20T03:10:43.648Z,4.47
2022-09-20T03:13:31.888Z,5.03
2022-09-20T03:16:08.176Z,5.07
2022-09-20T03:18:50.288Z,4.53
2022-09-20T03:21:51.922Z,4.60
2022-09-20T03:24:43.742Z,4.82
2022-09-20T03:27:37.208Z,3.92
2022-09-20T03:30:22.731Z,3.80
2022-09-20T03:32:52.915Z,3.38
2022-09-20T03:35:31.648Z,3.70
2022-09-20T03:38:17.108Z,3.63
2022-09-20T03:41:10.261Z,3.70
2022-09-20T03:44:12.314Z,3.75
2022-09-20T03:46:50.056Z,3.88
2022-09-20T03:49:55.196Z,4.15
2022-09-20T03:52:31.109Z,3.15
2022-09-20T03:55:07.422Z,3.42
2022-09-20T03:57:49.774Z,3.50
2022-09-20T04:00:34.792Z,3.28
2022-09-20T04:03:28.278Z,3.07
2022-09-20T04:06:29.549Z,2.78
2022-09-20T04:09:34.094Z,2.95
2022-09-20T04:12:32.225Z,2.78
2022-09-20T04:15:09.766Z,2.90
2022-09-20T04:18:01.327Z,3.28
2022-09-20T04:20:40.611Z,2.25
2022-09-20T04:23:30.677Z,2.40
2022-09-20T04:26:00.272Z,2.10
2022-09-20T04:28:52.745Z,2.63
2022-09-20T04:31:43.215Z,2.47
2022-09-20T04:34:33.367Z,2.72
2022-09-20T04:37:05.063Z,2.75
2022-09-20T04:39:46.926Z,2.38
2022-09-20T04:42:35.948Z,2.35
2022-09-20T04:45:30.250Z,2.38
2022-09-20T04:48:42.387Z,2.50
2022-09-20T04:51:43.554Z,2.30
2022-09-20T04:54:45.849Z,2.22
2022-09-20T04:57:40.751Z,2.22
2022-09-20T05:00:20.683Z,2.15
2022-09-20T05:03:11.897Z,2.40
2022-09-20T05:05:51.115Z,2.20
2022-09-20T05:08:36.533Z,2.72
2022-09-20T05:11:18.970Z,2.47
2022-09-20T05:14:07.789Z,2.60
2022-09-20T05:16:58.346Z,3.00
2022-09-20T05:20:02.771Z,2.80
2022-09-20T05:22:57.340Z,2.78
2022-09-20T05:25:39.043Z,2.60
2022-09-20T05:28:27.182Z,2.60
2022-09-20T05:31:26.399Z,3.00
2022-09-20T05:34:04.281Z,2.90
2022-09-20T05:36:37.269Z,2.90
2022-09-20T05:39:38.760Z,3.30
2022-09-20T05:42:30.142Z,3.25
2022-09-20T05:45:28.967Z,3.35
2022-09-20T05:48:02.024Z,3.15
2022-09-20T05:50:44.273Z,3.53
2022-09-20T05:53:32.959Z,3.72
2022-09-20T05:56:09.193Z,3.42
2022-09-20T05:58:46.715Z,3.00
2022-09-20T06:01:38.534Z,3.28
2022-09-20T06:04:30.244Z,3.22
2022-09-20T06:07:10.408Z,3.00
2022-09-20T06:10:08.405Z,3.83
2022-09-20T06:13:04.849Z,2.97
2022-09-20T06:15:54.982Z,3.17
2022-09-20T06:18:28.629Z,3.17
2022-09-20T06:21:04.683Z,2.95
2022-09-20T06:23:32.535Z,3.05
2022-09-20T06:26:09.306Z,3.58
2022-09-20T06:28:45.952Z,3.60
2022-09-20T06:31:13.210Z,3.47
2022-09-20T06:33:55.101Z,3.22
2022-09-20T06:36:50.385Z,3.20
2022-09-20T06:39:53.448Z,3.08
2022-09-20T06:42:25.285Z,3.10
2022-09-20T06:45:00.152Z,3.08
2022-09-20T06:47:40.063Z,2.88
2022-09-20T06:50:20.161Z,3.08
2022-09-20T06:52:50.365Z,2.60
2022-09-20T06:55:30.452Z,2.97
2022-09-20T06:58:02.431Z,2.60
2022-09-20T07:00:33.005Z,2.45
2022-09-20T07:03:04.538Z,2.67
2022-09-20T07:05:37.726Z,2.65
2022-09-20T07:08:11.240Z,2.53
2022-09-20T07:10:39.350Z,2.15
2022-09-20T07:13:06.756Z,2.42
2022-09-20T07:15:49.660Z,2.50
2022-09-20T07:18:25.624Z,2.58
2022-09-20T07:20:55.199Z,2.88
2022-09-20T07:23:50.869Z,2.30
2022-09-20T07:27:00.188Z,2.53
2022-09-20T07:32:43.385Z,2.92
2022-09-20T07:35:27.531Z,2.75
2022-09-20T07:38:14.540Z,2.42
2022-09-20T07:41:15.827Z,2.63
2022-09-20T07:44:16.684Z,3.03
2022-09-20T07:47:19.774Z,3.13
2022-09-20T07:50:05.631Z,2.95
2022-09-20T07:52:37.775Z,3.50
2022-09-20T07:55:14.800Z,3.15
2022-09-20T07:57:53.325Z,3.30
2022-09-20T08:00:35.066Z,3.10
2022-09-20T08:03:06.230Z,2.88
2022-09-20T08:05:40.232Z,2.85
2022-09-20T08:08:30.381Z,2.90
2022-09-20T08:11:22.567Z,2.83
2022-09-20T08:14:11.487Z,3.17
2022-09-20T08:17:02.561Z,2.95
2022-09-20T08:19:55.528Z,3.30
2022-09-20T08:22:35.361Z,2.90
2022-09-20T08:25:08.565Z,2.95
2022-09-20T08:27:35.814Z,2.70
2022-09-20T08:30:02.901Z,3.08
2022-09-20T08:32:30.203Z,3.15
2022-09-20T08:35:00.538Z,3.13
2022-09-20T08:37:36.126Z,2.92
2022-09-20T08:40:08.234Z,3.53
2022-09-20T08:43:29.391Z,3.25
2022-09-20T08:46:07.401Z,3.83
2022-09-20T08:48:44.161Z,4.38
2022-09-20T08:55:41.440Z,3.17
2022-09-20T08:58:50.007Z,3.50
2022-09-20T09:01:59.178Z,3.40
2022-09-20T09:05:02.744Z,3.50
2022-09-20T09:07:35.540Z,3.72
2022-09-20T09:10:20.872Z,3.78
2022-09-20T09:13:27.796Z,3.63
2022-09-20T09:15:43.115Z,5.20
2022-09-20T09:18:17.793Z,3.80
2022-09-20T09:20:48.888Z,3.45
2022-09-20T09:24:24.213Z,3.97
2022-09-20T09:27:37.520Z,4.70
2022-09-20T09:35:24.662Z,4.93
2022-09-20T09:41:50.904Z,4.47
2022-09-20T09:44:41.834Z,3.92
2022-09-20T09:48:19.888Z,4.20
2022-09-20T11:42:16.504Z,2.57
2022-09-20T11:44:46.928Z,2.05
2022-09-20T11:47:55.825Z,2.05
2022-09-20T11:51:15.360Z,2.63
2022-09-20T11:53:56.661Z,2.20
2022-09-20T11:57:21.536Z,2.30
2022-09-20T12:02:55.082Z,2.85
2022-09-20T12:05:37.572Z,2.83
2022-09-20T12:08:21.156Z,2.28
2022-09-20T12:11:04.701Z,2.88
2022-09-20T12:14:32.217Z,3.10
2022-09-20T12:17:28.678Z,2.97
2022-09-20T12:20:35.533Z,3.25
2022-09-20T12:46:45.011Z,4.53
2022-09-20T12:50:00.962Z,3.97
2022-09-20T12:53:10.697Z,4.43
2022-09-20T12:56:40.477Z,5.05
2022-09-20T13:07:38.927Z,3.83
2022-09-20T13:14:30.703Z,3.80
2022-09-20T13:17:14.133Z,3.58
2022-09-20T13:19:54.437Z,3.58
2022-09-20T13:22:35.620Z,3.58
2022-09-20T13:25:17.500Z,4.20
2022-09-20T13:27:58.264Z,3.33
2022-09-20T13:30:42.700Z,3.63
2022-09-20T13:33:27.042Z,3.47
2022-09-20T13:36:17.639Z,3.65
2022-09-20T13:38:50.115Z,3.45
2022-09-20T13:41:34.776Z,2.70
2022-09-20T13:44:23.102Z,3.20
2022-09-20T13:46:52.977Z,2.85
2022-09-20T13:49:25.000Z,3.17
2022-09-20T13:51:54.897Z,2.78
2022-09-20T13:54:32.207Z,2.83
2022-09-20T13:57:04.556Z,3.20
2022-09-20T13:59:51.626Z,3.15
2022-09-20T14:02:32.772Z,2.75
2022-09-20T14:05:12.835Z,2.83
2022-09-20T14:08:31.321Z,3.00
2022-09-20T14:11:22.777Z,2.97
2022-09-20T14:14:05.386Z,3.13
2022-09-20T14:16:47.314Z,3.80
2022-09-20T14:19:37.675Z,3.30
2022-09-20T14:22:07.647Z,3.42
2022-09-20T14:24:56.059Z,3.38
2022-09-20T14:27:41.420Z,2.78
2022-09-20T14:30:34.443Z,3.28
2022-09-20T14:33:09.833Z,2.75
2022-09-20T14:35:40.578Z,3.08
2022-09-20T14:38:25.252Z,2.80
2022-09-20T14:41:18.858Z,2.60
2022-09-20T14:44:03.431Z,2.78
2022-09-20T14:46:35.684Z,2.65
2022-09-20T14:49:53.768Z,2.63
2022-09-20T14:56:13.732Z,2.80
2022-09-20T15:02:29.527Z,2.60
2022-09-20T15:05:38.259Z,2.60
2022-09-20T15:09:09.445Z,2.58
2022-09-20T15:12:10.964Z,2.78
2022-09-20T15:14:59.203Z,3.03
2022-09-20T15:17:46.781Z,3.40
2022-09-20T15:20:35.527Z,2.90
2022-09-20T15:23:11.651Z,2.38
2022-09-20T15:26:00.414Z,2.90
2022-09-20T15:28:43.437Z,2.60
2022-09-20T15:31:28.461Z,2.97
2022-09-20T15:34:08.875Z,3.80
2022-09-20T15:36:44.861Z,2.67
2022-09-20T15:39:12.679Z,2.47
2022-09-20T15:42:06.114Z,2.63
2022-09-20T15:44:45.805Z,2.65
2022-09-20T15:48:05.423Z,2.55
2022-09-20T15:50:49.299Z,2.30
2022-09-20T15:53:42.931Z,2.70
2022-09-20T15:56:31.798Z,2.15
2022-09-20T15:59:42.946Z,2.38
2022-09-20T16:02:15.769Z,2.60
2022-09-20T16:04:51.373Z,2.60
2022-09-20T16:07:42.041Z,3.05
2022-09-20T16:10:35.145Z,3.20
2022-09-20T16:16:45.660Z,3.20
2022-09-20T16:19:20.921Z,3.47
2022-09-20T16:22:14.395Z,3.33
2022-09-20T16:25:09.824Z,3.80
2022-09-20T16:27:41.728Z,3.15
2022-09-20T16:30:24.791Z,3.55
2022-09-20T16:36:27.466Z,3.53
2022-09-20T16:45:20.466Z,3.65
2022-09-20T16:48:19.088Z,3.55
2022-09-20T16:51:09.540Z,3.95
2022-09-20T16:53:50.270Z,3.60
2022-09-20T16:56:42.387Z,4.65
2022-09-20T16:59:14.365Z,4.40
2022-09-20T17:01:42.747Z,4.57
2022-09-20T17:04:18.537Z,4.97
2022-09-20T17:06:49.380Z,4.82
2022-09-20T17:09:20.845Z,3.55
2022-09-20T17:11:50.495Z,4.40
2022-09-20T17:14:21.021Z,3.72
2022-09-20T17:16:51.654Z,3.80
2022-09-20T17:19:22.981Z,2.85
2022-09-20T17:21:54.074Z,3.92
2022-09-20T17:24:24.178Z,3.85
2022-09-20T17:26:51.977Z,3.53
2022-09-20T17:29:23.430Z,3.65
2022-09-20T17:31:59.890Z,3.50
2022-09-20T17:34:29.862Z,3.42
2022-09-20T17:36:56.995Z,3.63
2022-09-20T17:39:30.526Z,3.50
2022-09-20T17:41:58.148Z,3.33
2022-09-20T17:44:28.381Z,4.32
2022-09-20T17:47:00.838Z,3.28
2022-09-20T17:49:34.220Z,3.35
2022-09-20T17:52:04.603Z,3.10
2022-09-20T17:54:37.850Z,3.40
2022-09-20T17:57:05.742Z,4.35
2022-09-20T17:59:36.867Z,3.85
2022-09-20T18:02:10.652Z,3.05
2022-09-20T18:04:43.651Z,3.13
2022-09-20T18:07:21.299Z,3.78
2022-09-20T18:09:48.497Z,2.40
2022-09-20T18:12:19.788Z,2.83
2022-09-20T18:14:48.555Z,2.25
2022-09-20T18:17:16.471Z,2.42
2022-09-20T18:19:44.824Z,2.83
2022-09-20T18:22:14.205Z,2.42
2022-09-20T18:24:44.301Z,2.40
2022-09-20T18:27:12.556Z,2.40
2022-09-20T18:29:39.653Z,2.60
2022-09-20T18:32:08.937Z,2.30
2022-09-20T18:34:39.217Z,2.42
2022-09-20T18:37:11.144Z,2.65
2022-09-20T18:39:43.217Z,2.85
2022-09-20T18:42:10.603Z,3.20
2022-09-20T18:44:46.807Z,3.10
2022-09-20T18:47:14.059Z,3.13
2022-09-20T18:49:42.344Z,3.22
2022-09-20T18:52:13.329Z,3.20
2022-09-20T18:54:43.811Z,3.70
2022-09-20T18:57:15.790Z,3.88
2022-09-20T18:59:54.459Z,4.60
2022-09-20T19:02:51.534Z,3.83
2022-09-20T19:05:55.738Z,4.10
2022-09-20T19:08:38.400Z,3.47
2022-09-20T19:11:12.836Z,3.65
2022-09-20T19:13:53.071Z,3.90
2022-09-20T19:16:34.896Z,3.80
2022-09-20T19:19:20.271Z,4.00
2022-09-20T19:22:14.122Z,3.17
2022-09-20T19:25:12.811Z,3.30
2022-09-20T19:35:13.974Z,2.20
2022-09-20T19:38:45.205Z,2.35
2022-09-20T19:42:04.558Z,1.83
2022-09-20T19:44:57.025Z,2.42
2022-09-20T19:55:40.805Z,2.35
2022-09-20T19:58:35.686Z,2.50
2022-09-20T20:04:14.193Z,1.88
2022-09-20T20:10:50.965Z,2.22
2022-09-20T20:14:13.054Z,1.85
2022-09-20T20:17:21.814Z,1.80
2022-09-20T20:20:13.850Z,1.55
2022-09-20T20:23:12.479Z,1.63
2022-09-20T20:26:00.369Z,1.77
2022-09-20T20:28:35.366Z,1.50
2022-09-20T20:31:28.179Z,1.30
2022-09-20T20:39:52.456Z,1.98
2022-09-20T20:42:23.653Z,1.20
2022-09-20T20:45:16.512Z,1.40
2022-09-20T20:47:48.035Z,1.40
2022-09-20T20:50:17.710Z,1.38
2022-09-20T20:52:47.569Z,1.20
2022-09-20T20:55:17.085Z,1.50
2022-09-20T20:58:27.592Z,1.63
2022-09-20T21:01:08.955Z,1.20
2022-09-20T21:06:58.364Z,1.20
2022-09-20T21:09:32.991Z,0.98
2022-09-20T21:12:11.314Z,1.23
2022-09-20T21:14:47.946Z,1.27
2022-09-20T21:17:36.195Z,0.93
2022-09-20T21:20:09.758Z,1.10
2022-09-20T21:22:37.170Z,0.80
2022-09-20T21:25:12.069Z,0.88
2022-09-20T21:27:53.835Z,1.00
2022-09-20T21:30:26.710Z,0.90
2022-09-20T21:33:08.601Z,1.00
2022-09-20T21:35:55.388Z,0.80
2022-09-20T21:38:22.948Z,1.00
2022-09-20T21:40:50.212Z,1.20
2022-09-20T21:43:19.821Z,0.98
2022-09-20T21:46:15.471Z,0.88
2022-09-20T21:48:57.735Z,1.05
2022-09-20T21:51:33.584Z,1.17
2022-09-20T21:54:02.101Z,0.98
2022-09-20T21:56:52.721Z,1.10
2022-09-20T21:59:25.183Z,1.02
2022-09-20T22:01:54.720Z,1.08
2022-09-20T22:04:21.957Z,1.02
2022-09-20T22:06:51.503Z,0.93
2022-09-20T22:09:29.018Z,1.25
2022-09-20T22:11:56.259Z,1.10
2022-09-20T22:14:25.694Z,0.90
2022-09-20T22:19:49.694Z,0.90
2022-09-20T22:22:19.268Z,0.82
2022-09-20T22:24:48.983Z,0.90
2022-09-20T22:27:20.736Z,1.17
2022-09-20T22:29:53.885Z,0.90
2022-09-20T22:32:26.307Z,1.13
2022-09-20T22:34:58.065Z,0.95
2022-09-20T22:37:25.350Z,1.20
2022-09-20T22:39:52.772Z,1.25
2022-09-20T22:42:21.150Z,1.00
2022-09-20T22:44:56.348Z,1.20
2022-09-20T22:47:24.722Z,1.10
2022-09-20T22:50:45.068Z,1.73
2022-09-20T22:53:12.695Z,1.10
2022-09-20T22:55:42.468Z,1.00
2022-09-20T22:58:11.998Z,1.42
2022-09-20T23:00:39.719Z,1.30
2022-09-20T23:03:15.030Z,1.17
2022-09-20T23:05:47.555Z,1.35
2022-09-20T23:08:17.823Z,1.40
2022-09-20T23:10:47.986Z,1.40
2022-09-20T23:13:27.521Z,1.80
2022-09-20T23:16:17.309Z,1.35
2022-09-20T23:18:53.965Z,1.63
2022-09-20T23:21:33.143Z,1.45
2022-09-20T23:24:19.274Z,1.50
2022-09-20T23:27:00.829Z,1.80
2022-09-20T23:29:37.483Z,1.70
2022-09-20T23:32:16.730Z,2.03
2022-09-20T23:34:48.695Z,1.33
2022-09-20T23:37:15.967Z,1.60
2022-09-20T23:39:43.054Z,1.80
2022-09-20T23:42:10.160Z,1.50
2022-09-20T23:44:37.602Z,1.67
2022-09-20T23:47:04.684Z,1.45
2022-09-20T23:49:32.235Z,1.98
2022-09-20T23:52:02.531Z,1.70
2022-09-20T23:54:29.628Z,1.58
2022-09-20T23:56:57.500Z,1.70
2022-09-20T23:59:25.960Z,1.70
